Historyczne dane pomiarowe

Dodano dane terminowe – wersja testowa.

Dane z okresu 1951-2019

Wersja bazy: 1.34 [2019-03-16, lista zmian], aktualizacja planowana na 2019-04-15

Dane meteo z obszaru Polski uzyskane na podstawie danych udostępnionych przez Instytut Meteorologii i Gospodarki Wodnej – Państwowy Instytut Badawczy.

 

Wybierz Datę:    

       

TemperaturaWilgotnośćWiatrCiśnienieOpadyŚniegCzas trwania zjawisk
 Stacja t tx tn tng RH VA  wxwx mslp ppp RRR   cm mm wxwxwxwxwxwxwx
2019-06-19 21.5 27.9 14.8 12.6-- 3.7----- 0.0------------
2019-06-18 20.0 25.9 13.6 12.8-- 1.0----- 0.0------------
2019-06-17 19.9 24.8 15.2 14.8-- 2.3----- 0.0------------
2019-06-16 21.9 30.1 16.8 13.0-- 5.0----- 1.8------------
2019-06-15 24.5 32.9 14.7 13.8-- 1.7----- 0.0------------
2019-06-14 22.6 27.9 17.3 15.1-- 4.0----- 0.0------------
2019-06-13 25.6 32.7 17.3 16.1-- 2.7----- 0.8------------
2019-06-12 25.0 32.4 14.9 14.3-- 1.3----- 0.0------------
2019-06-11 24.1 34.4 16.0 14.8-- 1.7----- 2.6------------
2019-06-10 23.3 30.5 14.7 14.3-- 1.0----- 0.0------------
2019-06-09 20.3 26.1 12.5 12.3-- 1.3----- 0.0------------
2019-06-08 20.7 25.9 14.2 13.8-- 3.7----- 0.0------------
2019-06-07 19.9 25.3 13.2 13.2-- 4.0----- 0.0------------
2019-06-06 20.6 27.4 13.2 12.7-- 4.7----- 25.8------------
2019-06-05 21.1 27.1 13.6 12.4-- 3.0----- 0.0------------
2019-06-04 20.2 27.9 12.2 11.1-- 1.3----- 0.0------------
2019-06-03 19.6 26.9 11.7 10.3-- 0.7----- 0.0------------
2019-06-02 19.8 25.3 12.3 10.8-- 4.0----- 2.7------------
2019-06-01 17.0 23.9 10.2 8.8-- 4.3----- 0.0------------
2019-05-31 14.8 21.8 7.5 8.8-- 3.7----- 0.0------------
2019-05-30 10.4 13.1 8.3 9.3-- 8.0----- 4.0------------
2019-05-29 12.1 16.1 9.5 8.4-- 7.3----- 1.5------------
2019-05-28 16.7 20.7 11.9 9.3-- 7.3----- 13.1------------
2019-05-27 18.3 25.2 10.2 7.9-- 5.7----- 3.2------------
2019-05-26 14.6 23.2 6.8 5.9-- 2.3----- 0.0------------
2019-05-25 13.1 21.7 6.3 4.4-- 3.3----- 2.5------------
2019-05-24 12.8 18.2 8.3 7.9-- 6.3----- 0.0------------
2019-05-23 10.8 13.3 9.2 7.4-- 8.0----- 9.6------------
2019-05-22 14.0 17.2 11.2 7.9-- 6.0----- 29.4------------
2019-05-21 14.2 20.8 8.3 5.9-- 7.3----- 28.0------------
2019-05-20 15.9 21.2 11.2 8.4-- 7.0----- 0.0------------
2019-05-19 15.9 24.2 7.3 6.4-- 3.3----- 4.3------------
2019-05-18 14.6 23.2 6.8 5.4-- 3.7----- 2.4------------
2019-05-17 13.4 19.7 8.3 7.3-- 5.3----- 0.0------------
2019-05-16 10.6 15.5 6.2 6.9-- 8.0----- 0.0------------
2019-05-15 7.3 9.3 4.6 4.4-- 8.0----- 7.7------------
2019-05-14 6.0 7.8 4.9 3.4-- 8.0----- 11.3------------
2019-05-13 7.3 11.5 4.7 1.1-- 7.3----- 0.3------------
2019-05-12 10.3 15.1 6.9 5.4-- 8.0----- 4.9------------
2019-05-11 13.2 19.7 6.2 4.4-- 3.3----- 0.4------------
2019-05-10 10.9 17.6 2.8 1.1-- 6.3----- 2.6------------
2019-05-09 8.9 13.5 6.2 2.9-- 8.0----- 7.6------------
2019-05-08 9.1 17.2 -0.5 -2.4-- 2.7----- 3.6------------
2019-05-07 7.4 12.6 1.5 -0.3-- 7.0----- 0.0------------
2019-05-06 7.4 9.9 3.6 2.9-- 8.0----- 0.0------------
2019-05-05 6.9 13.2 2.4 2.3-- 8.0----- 1.2------------
2019-05-04 10.1 14.7 3.9 1.0-- 5.3----- 3.9------------
2019-05-03 10.1 15.8 5.8 2.9-- 8.0----- 0.3------------
2019-05-02 13.8 19.3 8.0 6.4-- 2.3----- 0.0------------
2019-05-01 11.7 18.2 5.6 5.4-- 3.0----- 0.8------------
2019-04-30 11.7 15.7 9.1 8.4-- 8.0----- 7.4------------
2019-04-29 8.8 11.3 6.8 2.9-- 8.0----- 12.4------------
2019-04-28 9.8 12.5 7.8 7.9-- 8.0----- 25.9------------
2019-04-27 12.8 19.1 8.3 8.2-- 8.0----- 3.4------------
2019-04-26 18.4 27.1 8.9 4.8-- 3.0----- 0.9------------
2019-04-25 17.7 26.0 8.7 4.9-- 2.0----- 0.0------------
2019-04-24 13.3 21.3 7.8 6.8-- 3.7----- 0.0------------
2019-04-23 11.4 19.5 3.9 3.4-- 5.7----- 0.0------------
2019-04-22 10.4 17.2 2.8 2.5-- 2.7----- 0.0------------
2019-04-21 10.4 19.2 2.1 1.9-- 3.3----- 0.0------------
173.7 ms

 

Źródłem pochodzenia danych jest Instytut Meteorologii i Gospodarki Wodnej – Państwowy Instytut Badawczy. Dane Instytutu Meteorologii i Gospodarki Wodnej – Państwowego Instytutu Badawczego zostały przetworzone.

Dane źródłowe można odnaleźć na stronie https://dane.imgw.pl